createdAt,value
2022-08-16T00:02:55.524Z,97893.94
2022-08-16T00:05:58.692Z,97890.00
2022-08-16T00:09:01.643Z,97890.44
2022-08-16T00:12:05.705Z,97883.34
2022-08-16T00:15:17.213Z,97894.81
2022-08-16T00:18:22.329Z,97890.84
2022-08-16T00:21:32.800Z,97903.47
2022-08-16T00:24:35.465Z,97899.53
2022-08-16T00:27:38.502Z,97900.31
2022-08-16T00:30:42.694Z,97900.34
2022-08-16T00:33:50.113Z,97898.38
2022-08-16T00:36:55.974Z,97896.00
2022-08-16T00:39:59.039Z,97899.16
2022-08-16T00:43:02.212Z,97901.94
2022-08-16T00:46:32.845Z,97900.31
2022-08-16T00:49:44.882Z,97905.06
2022-08-16T00:52:59.331Z,97900.34
2022-08-16T00:56:05.439Z,97914.13
2022-08-16T00:59:10.469Z,97899.13
2022-08-16T01:02:31.583Z,97901.88
2022-08-16T01:05:36.677Z,97899.09
2022-08-16T01:08:42.054Z,97907.41
2022-08-16T01:11:53.758Z,97906.19
2022-08-16T01:14:59.939Z,97904.22
2022-08-16T01:18:05.829Z,97908.19
2022-08-16T01:21:22.408Z,97902.25
2022-08-16T01:24:45.296Z,97901.06
2022-08-16T01:27:54.451Z,97908.94
2022-08-16T01:30:58.248Z,97905.78
2022-08-16T01:34:00.973Z,97904.97
2022-08-16T01:37:09.335Z,97912.81
2022-08-16T01:40:15.429Z,97906.50
2022-08-16T01:43:18.521Z,97909.63
2022-08-16T01:46:37.228Z,97912.78
2022-08-16T01:50:43.608Z,97908.09
2022-08-16T01:53:07.335Z,97912.00
2022-08-16T01:56:23.349Z,97910.88
2022-08-16T01:59:28.451Z,97910.44
2022-08-16T02:02:31.167Z,97907.22
2022-08-16T02:05:34.845Z,97908.41
2022-08-16T02:08:37.761Z,97908.78
2022-08-16T02:11:48.643Z,97902.91
2022-08-16T02:14:55.777Z,97901.75
2022-08-16T02:18:01.423Z,97908.50
2022-08-16T02:21:05.757Z,97902.63
2022-08-16T02:24:17.610Z,97900.66
2022-08-16T02:27:32.617Z,97905.44
2022-08-16T02:30:36.961Z,97900.31
2022-08-16T02:33:50.234Z,97896.75
2022-08-16T02:36:53.538Z,97897.16
2022-08-16T02:39:57.730Z,97895.97
2022-08-16T02:43:26.721Z,97904.25
2022-08-16T02:46:33.654Z,97903.88
2022-08-16T02:50:30.577Z,97899.91
2022-08-16T02:52:59.706Z,97887.66
2022-08-16T02:56:02.443Z,97890.75
2022-08-16T02:59:11.611Z,97895.47
2022-08-16T03:02:17.226Z,97886.00
2022-08-16T03:05:19.889Z,97889.16
2022-08-16T03:08:49.711Z,97884.44
2022-08-16T03:11:47.675Z,97885.66
2022-08-16T03:14:51.689Z,97881.28
2022-08-16T03:17:54.799Z,97879.72
2022-08-16T03:20:59.740Z,97872.16
2022-08-16T03:24:03.437Z,97874.88
2022-08-16T03:27:06.430Z,97869.28
2022-08-16T03:30:17.455Z,97867.28
2022-08-16T03:33:20.906Z,97862.50
2022-08-16T03:36:30.864Z,97863.66
2022-08-16T03:39:34.064Z,97863.66
2022-08-16T03:43:00.440Z,97873.56
2022-08-16T03:46:10.755Z,97864.09
2022-08-16T03:49:13.826Z,97870.81
2022-08-16T03:52:16.623Z,97874.75
2022-08-16T03:55:23.260Z,97865.25
2022-08-16T03:58:36.925Z,97866.81
2022-08-16T04:01:41.381Z,97869.97
2022-08-16T04:04:44.418Z,97870.75
2022-08-16T04:07:47.025Z,97868.00
2022-08-16T04:10:55.381Z,97878.59
2022-08-16T04:14:31.011Z,97873.53
2022-08-16T04:17:24.822Z,97864.47
2022-08-16T04:20:33.744Z,97877.88
2022-08-16T04:23:38.824Z,97878.25
2022-08-16T04:26:42.588Z,97884.59
2022-08-16T04:29:49.091Z,97881.88
2022-08-16T04:32:57.136Z,97889.81
2022-08-16T04:36:03.823Z,97884.31
2022-08-16T04:39:07.826Z,97889.94
2022-08-16T04:42:11.677Z,97904.16
2022-08-16T04:45:14.803Z,97893.94
2022-08-16T04:48:28.459Z,97908.97
2022-08-16T04:51:36.285Z,97911.78
2022-08-16T04:54:40.567Z,97922.06
2022-08-16T04:57:53.281Z,97912.56
2022-08-16T05:00:56.637Z,97919.34
2022-08-16T05:04:01.831Z,97917.75
2022-08-16T05:07:04.997Z,97911.78
2022-08-16T05:10:19.642Z,97919.28
2022-08-16T05:13:39.935Z,97923.25
2022-08-16T05:16:44.636Z,97916.50
2022-08-16T05:19:57.224Z,97918.88
2022-08-16T05:23:01.147Z,97924.75
2022-08-16T05:26:03.954Z,97923.19
2022-08-16T05:29:11.143Z,97918.00
2022-08-16T05:32:34.129Z,97924.25
2022-08-16T05:35:40.755Z,97935.41
2022-08-16T05:38:45.306Z,97935.00
2022-08-16T05:41:52.176Z,97931.81
2022-08-16T05:44:55.170Z,97928.50
2022-08-16T05:48:01.703Z,97922.13
2022-08-16T05:51:06.041Z,97923.59
2022-08-16T05:54:14.038Z,97926.72
2022-08-16T05:57:18.120Z,97932.91
2022-08-16T06:00:22.694Z,97939.63
2022-08-16T06:03:25.938Z,97935.41
2022-08-16T06:06:33.751Z,97936.25
2022-08-16T06:09:43.619Z,97938.63
2022-08-16T06:12:47.286Z,97939.94
2022-08-16T06:15:55.490Z,97943.13
2022-08-16T06:18:58.943Z,97955.09
2022-08-16T06:22:08.922Z,97946.72
2022-08-16T06:25:36.107Z,97949.13
2022-08-16T06:28:42.959Z,97947.16
2022-08-16T06:31:50.438Z,97950.25
2022-08-16T06:34:55.535Z,97944.16
2022-08-16T06:38:01.923Z,97938.59
2022-08-16T06:41:13.572Z,97942.22
2022-08-16T06:44:21.035Z,97954.34
2022-08-16T06:47:53.523Z,97944.63
2022-08-16T06:50:51.949Z,97944.88
2022-08-16T06:53:56.039Z,97951.09
2022-08-16T06:56:59.545Z,97946.56
2022-08-16T07:00:02.322Z,97947.22
2022-08-16T07:03:27.690Z,97951.50
2022-08-16T07:06:28.944Z,97957.28
2022-08-16T07:09:33.323Z,97963.78
2022-08-16T07:12:47.299Z,97965.13
2022-08-16T07:16:01.770Z,97960.66
2022-08-16T07:19:04.511Z,97952.06
2022-08-16T07:22:07.258Z,97958.16
2022-08-16T07:25:31.359Z,97948.38
2022-08-16T07:28:35.475Z,97957.59
2022-08-16T07:31:38.453Z,97946.44
2022-08-16T07:34:48.179Z,97950.06
2022-08-16T07:37:51.593Z,97945.84
2022-08-16T07:41:00.373Z,97944.16
2022-08-16T07:44:16.586Z,97934.88
2022-08-16T07:47:20.197Z,97938.03
2022-08-16T07:50:57.729Z,97948.25
2022-08-16T07:54:09.204Z,97950.25
2022-08-16T07:57:14.671Z,97949.09
2022-08-16T08:00:21.916Z,97952.13
2022-08-16T08:03:35.964Z,97945.84
2022-08-16T08:06:42.489Z,97955.81
2022-08-16T08:09:45.937Z,97955.00
2022-08-16T08:12:50.812Z,97959.88
2022-08-16T08:15:58.045Z,97963.53
2022-08-16T08:19:02.812Z,97963.59
2022-08-16T08:22:06.818Z,97969.66
2022-08-16T08:25:10.249Z,97971.81
2022-08-16T08:28:17.705Z,97981.28
2022-08-16T08:31:20.376Z,97982.34
2022-08-16T08:34:23.790Z,97979.63
2022-08-16T08:37:27.676Z,97975.94
2022-08-16T08:40:50.706Z,97984.16
2022-08-16T08:43:55.104Z,97993.97
2022-08-16T08:47:00.329Z,97990.84
2022-08-16T08:50:05.402Z,97994.19
2022-08-16T08:53:08.577Z,97993.72
2022-08-16T08:56:22.540Z,97997.91
2022-08-16T08:59:27.882Z,98000.25
2022-08-16T09:02:31.043Z,97999.47
2022-08-16T09:05:35.721Z,98007.91
2022-08-16T09:08:39.868Z,98004.38
2022-08-16T09:11:58.341Z,98001.13
2022-08-16T09:15:11.558Z,98005.84
2022-08-16T09:18:25.114Z,97996.53
2022-08-16T09:21:31.299Z,98005.06
2022-08-16T09:24:51.874Z,98012.50
2022-08-16T09:27:57.666Z,98006.94
2022-08-16T09:31:07.238Z,98000.03
2022-08-16T09:34:19.240Z,97998.97
2022-08-16T09:37:29.794Z,98000.66
2022-08-16T09:40:43.833Z,98004.09
2022-08-16T09:43:58.105Z,98001.09
2022-08-16T09:47:10.368Z,97995.03
2022-08-16T09:50:14.596Z,98007.94
2022-08-16T09:53:26.757Z,98000.75
2022-08-16T09:56:32.175Z,98004.16
2022-08-16T09:59:38.367Z,98002.75
2022-08-16T10:02:44.473Z,97993.22
2022-08-16T10:05:51.651Z,97990.72
2022-08-16T10:09:05.571Z,97994.09
2022-08-16T10:12:42.554Z,97990.09
2022-08-16T10:15:55.504Z,97986.25
2022-08-16T10:19:06.646Z,97990.78
2022-08-16T10:22:12.698Z,97998.72
2022-08-16T10:27:16.170Z,97993.59
2022-08-16T10:28:42.128Z,98004.44
2022-08-16T10:31:46.748Z,98004.19
2022-08-16T10:34:58.005Z,98005.22
2022-08-16T10:38:01.096Z,98007.00
2022-08-16T10:41:04.227Z,98002.88
2022-08-16T10:44:09.529Z,98003.53
2022-08-16T10:47:12.803Z,98005.09
2022-08-16T10:50:18.963Z,98002.78
2022-08-16T10:53:23.018Z,98000.78
2022-08-16T10:56:52.266Z,97998.75
2022-08-16T10:59:53.227Z,98001.00
2022-08-16T11:03:01.795Z,98004.97
2022-08-16T11:06:15.411Z,98005.13
2022-08-16T11:09:25.256Z,98006.22
2022-08-16T11:12:31.485Z,98000.69
2022-08-16T11:15:35.258Z,98000.69
2022-08-16T11:18:54.991Z,98000.31
2022-08-16T11:22:39.691Z,97997.78
2022-08-16T11:32:20.314Z,97995.09
2022-08-16T11:39:00.080Z,97999.78
2022-08-16T11:42:03.280Z,97985.38
2022-08-16T11:45:25.799Z,97990.78
2022-08-16T11:48:33.326Z,97980.69
2022-08-16T11:51:35.938Z,97989.75
2022-08-16T11:54:40.747Z,97986.59
2022-08-16T11:57:43.671Z,97986.34
2022-08-16T12:00:51.709Z,97982.19
2022-08-16T12:03:56.987Z,97981.91
2022-08-16T12:06:59.958Z,97968.53
2022-08-16T12:10:06.515Z,97975.22
2022-08-16T12:13:11.455Z,97971.28
2022-08-16T12:16:17.661Z,97982.88
2022-08-16T12:19:33.947Z,97979.00
2022-08-16T12:22:38.582Z,97974.50
2022-08-16T12:25:42.690Z,97963.13
2022-08-16T12:28:56.241Z,97963.53
2022-08-16T12:32:26.746Z,97953.13
2022-08-16T12:35:22.695Z,97956.38
2022-08-16T12:38:41.147Z,97954.97
2022-08-16T12:41:49.490Z,97957.13
2022-08-16T12:44:53.026Z,97944.06
2022-08-16T12:48:33.474Z,97955.41
2022-08-16T12:51:59.935Z,97939.47
2022-08-16T12:55:01.310Z,97948.16
2022-08-16T12:58:06.055Z,97942.75
2022-08-16T13:01:17.517Z,97937.19
2022-08-16T13:04:24.932Z,97928.22
2022-08-16T13:07:28.115Z,97918.66
2022-08-16T13:10:41.333Z,97918.91
2022-08-16T13:13:47.276Z,97918.56
2022-08-16T13:16:57.565Z,97924.78
2022-08-16T13:20:09.435Z,97911.69
2022-08-16T13:23:14.460Z,97913.53
2022-08-16T13:26:20.403Z,97908.66
2022-08-16T13:29:25.027Z,97903.19
2022-08-16T13:32:42.493Z,97904.91
2022-08-16T13:35:56.140Z,97906.69
2022-08-16T13:39:00.937Z,97898.81
2022-08-16T13:42:04.311Z,97887.00
2022-08-16T13:45:09.965Z,97882.97
2022-08-16T13:48:21.944Z,97888.47
2022-08-16T13:51:30.641Z,97882.50
2022-08-16T13:54:33.612Z,97878.44
2022-08-16T13:57:53.061Z,97869.94
2022-08-16T14:01:01.090Z,97867.41
2022-08-16T14:04:05.682Z,97869.28
2022-08-16T14:07:10.289Z,97867.75
2022-08-16T14:10:15.298Z,97864.03
2022-08-16T14:13:21.104Z,97864.47
2022-08-16T14:16:33.670Z,97858.78
2022-08-16T14:19:37.270Z,97849.53
2022-08-16T14:22:54.514Z,97839.44
2022-08-16T14:25:57.634Z,97845.09
2022-08-16T14:29:03.800Z,97841.44
2022-08-16T14:32:09.295Z,97843.19
2022-08-16T14:35:18.449Z,97834.31
2022-08-16T14:38:23.824Z,97838.63
2022-08-16T14:41:27.487Z,97837.19
2022-08-16T14:44:30.889Z,97840.22
2022-08-16T14:47:37.192Z,97852.16
2022-08-16T14:50:40.106Z,97831.38
2022-08-16T14:53:49.638Z,97839.28
2022-08-16T14:56:55.453Z,97839.50
2022-08-16T15:00:04.684Z,97838.66
2022-08-16T15:03:11.539Z,97831.97
2022-08-16T15:06:14.672Z,97840.53
2022-08-16T15:09:19.425Z,97831.72
2022-08-16T15:12:33.421Z,97828.25
2022-08-16T15:15:41.184Z,97830.97
2022-08-16T15:18:46.700Z,97829.47
2022-08-16T15:21:53.824Z,97820.84
2022-08-16T15:24:59.349Z,97819.88
2022-08-16T15:28:05.349Z,97830.97
2022-08-16T15:31:13.066Z,97820.47
2022-08-16T15:34:21.851Z,97812.31
2022-08-16T15:37:42.668Z,97822.97
2022-08-16T15:40:56.684Z,97829.34
2022-08-16T15:44:05.508Z,97822.50
2022-08-16T15:47:15.683Z,97826.59
2022-08-16T15:50:20.011Z,97826.47
2022-08-16T15:53:24.846Z,97827.72
2022-08-16T15:56:28.366Z,97822.56
2022-08-16T15:59:34.837Z,97823.00
2022-08-16T16:03:01.149Z,97818.94
2022-08-16T16:06:05.629Z,97819.56
2022-08-16T16:09:08.860Z,97818.88
2022-08-16T16:12:41.883Z,97816.78
2022-08-16T16:15:39.549Z,97823.47
2022-08-16T16:18:42.651Z,97819.09
2022-08-16T16:21:53.967Z,97816.41
2022-08-16T16:24:57.496Z,97819.19
2022-08-16T16:28:00.930Z,97807.38
2022-08-16T16:31:05.727Z,97811.69
2022-08-16T16:34:10.019Z,97807.63
2022-08-16T16:37:15.832Z,97807.34
2022-08-16T16:40:28.947Z,97811.72
2022-08-16T16:43:36.210Z,97809.81
2022-08-16T16:46:43.076Z,97803.03
2022-08-16T16:49:46.635Z,97807.34
2022-08-16T16:52:53.811Z,97797.63
2022-08-16T16:55:56.510Z,97806.53
2022-08-16T16:59:01.672Z,97801.69
2022-08-16T17:02:38.881Z,97804.34
2022-08-16T17:05:32.429Z,97806.03
2022-08-16T17:08:37.849Z,97801.59
2022-08-16T17:11:48.674Z,97805.56
2022-08-16T17:14:58.439Z,97808.31
2022-08-16T17:18:04.403Z,97813.44
2022-08-16T17:21:29.108Z,97816.75
2022-08-16T17:24:39.883Z,97817.84
2022-08-16T17:27:43.598Z,97808.03
2022-08-16T17:30:54.179Z,97813.53
2022-08-16T17:33:59.145Z,97813.72
2022-08-16T17:37:08.001Z,97819.75
2022-08-16T17:40:19.231Z,97818.72
2022-08-16T17:43:44.203Z,97816.28
2022-08-16T17:46:51.909Z,97816.16
2022-08-16T17:49:56.902Z,97823.31
2022-08-16T17:53:00.023Z,97823.91
2022-08-16T17:56:06.247Z,97828.72
2022-08-16T17:59:09.190Z,97833.38
2022-08-16T18:02:42.518Z,97832.84
2022-08-16T18:05:35.750Z,97833.69
2022-08-16T18:08:39.497Z,97836.91
2022-08-16T18:11:44.622Z,97839.91
2022-08-16T18:14:51.099Z,97839.03
2022-08-16T18:17:55.686Z,97833.75
2022-08-16T18:21:16.586Z,97835.28
2022-08-16T18:24:20.060Z,97837.72
2022-08-16T18:27:27.245Z,97836.78
2022-08-16T18:30:30.859Z,97846.88
2022-08-16T18:33:42.765Z,97850.91
2022-08-16T18:36:46.764Z,97853.50
2022-08-16T18:39:49.902Z,97852.72
2022-08-16T18:42:57.864Z,97849.13
2022-08-16T18:46:01.301Z,97856.28
2022-08-16T18:49:04.617Z,97851.91
2022-08-16T18:52:09.215Z,97867.72
2022-08-16T18:55:13.832Z,97857.91
2022-08-16T18:58:18.941Z,97855.94
2022-08-16T19:01:22.380Z,97869.88
2022-08-16T19:04:56.023Z,97872.22
2022-08-16T19:07:48.429Z,97870.41
2022-08-16T19:10:53.136Z,97876.78
2022-08-16T19:13:59.077Z,97877.03
2022-08-16T19:17:01.938Z,97880.16
2022-08-16T19:20:10.504Z,97886.50
2022-08-16T19:23:16.106Z,97891.59
2022-08-16T19:26:25.992Z,97887.38
2022-08-16T19:29:30.700Z,97889.63
2022-08-16T19:32:34.140Z,97890.53
2022-08-16T19:35:37.536Z,97904.34
2022-08-16T19:38:42.163Z,97902.22
2022-08-16T19:41:52.063Z,97910.19
2022-08-16T19:45:01.856Z,97904.38
2022-08-16T19:48:05.666Z,97909.72
2022-08-16T19:51:08.431Z,97906.34
2022-08-16T19:54:11.128Z,97913.13
2022-08-16T19:57:14.296Z,97902.53
2022-08-16T20:00:19.097Z,97899.31
2022-08-16T20:03:23.972Z,97901.06
2022-08-16T20:06:32.111Z,97906.34
2022-08-16T20:09:42.261Z,97905.66
2022-08-16T20:13:02.524Z,97909.56
2022-08-16T20:16:08.868Z,97913.81
2022-08-16T20:19:11.659Z,97904.72
2022-08-16T20:22:51.774Z,97900.50
2022-08-16T20:25:49.870Z,97911.91
2022-08-16T20:28:54.811Z,97913.94
2022-08-16T20:31:59.597Z,97909.00
2022-08-16T20:35:03.310Z,97914.44
2022-08-16T20:38:06.976Z,97914.84
2022-08-16T20:41:10.054Z,97917.75
2022-08-16T20:44:13.909Z,97917.81
2022-08-16T20:47:18.010Z,97913.84
2022-08-16T20:50:22.416Z,97913.84
2022-08-16T20:53:25.128Z,97917.63
2022-08-16T20:56:27.890Z,97926.50
2022-08-16T20:59:30.907Z,97918.94
2022-08-16T21:02:34.949Z,97925.31
2022-08-16T21:05:40.884Z,97918.97
2022-08-16T21:08:51.775Z,97920.97
2022-08-16T21:11:57.587Z,97925.16
2022-08-16T21:15:05.402Z,97925.06
2022-08-16T21:18:09.472Z,97920.41
2022-08-16T21:21:12.852Z,97928.06
2022-08-16T21:24:16.045Z,97924.94
2022-08-16T21:27:19.891Z,97926.16
2022-08-16T21:30:31.058Z,97936.25
2022-08-16T21:33:37.027Z,97934.78
2022-08-16T21:36:39.855Z,97937.13
2022-08-16T21:39:42.604Z,97940.72
2022-08-16T21:42:45.417Z,97942.41
2022-08-16T21:45:54.182Z,97946.78
2022-08-16T21:48:59.987Z,97938.41
2022-08-16T21:52:03.119Z,97946.75
2022-08-16T21:55:07.727Z,97956.28
2022-08-16T21:58:10.662Z,97951.63
2022-08-16T22:01:13.627Z,97950.09
2022-08-16T22:04:37.921Z,97946.94
2022-08-16T22:07:40.678Z,97952.56
2022-08-16T22:11:07.442Z,97953.84
2022-08-16T22:14:06.963Z,97962.97
2022-08-16T22:17:10.513Z,97953.84
2022-08-16T22:20:14.561Z,97960.63
2022-08-16T22:23:19.377Z,97964.59
2022-08-16T22:26:29.943Z,97964.97
2022-08-16T22:29:33.465Z,97965.44
2022-08-16T22:32:39.677Z,97961.13
2022-08-16T22:35:47.382Z,97971.84
2022-08-16T22:38:56.527Z,97967.91
2022-08-16T22:42:00.037Z,97968.78
2022-08-16T22:45:06.931Z,97972.34
2022-08-16T22:48:09.749Z,97975.97
2022-08-16T22:51:14.020Z,97976.75
2022-08-16T22:54:47.329Z,97970.03
2022-08-16T22:57:39.511Z,97965.66
2022-08-16T23:00:42.833Z,97960.09
2022-08-16T23:03:45.752Z,97963.28
2022-08-16T23:06:49.837Z,97961.72
2022-08-16T23:09:52.686Z,97958.19
2022-08-16T23:12:58.179Z,97954.25
2022-08-16T23:16:11.071Z,97952.69
2022-08-16T23:19:16.223Z,97955.50
2022-08-16T23:22:24.630Z,97958.66
2022-08-16T23:25:30.611Z,97956.28
2022-08-16T23:28:33.485Z,97961.09
2022-08-16T23:31:36.145Z,97939.72
2022-08-16T23:34:38.997Z,97942.50
2022-08-16T23:37:43.133Z,97947.66
2022-08-16T23:40:46.313Z,97944.91
2022-08-16T23:43:48.988Z,97942.16
2022-08-16T23:46:51.829Z,97938.19
2022-08-16T23:50:00.744Z,97931.47
2022-08-16T23:53:09.991Z,97928.72
2022-08-16T23:56:14.627Z,97927.13
2022-08-16T23:59:17.355Z,97927.94
